createdAt,value
2022-11-20T00:02:33.554Z,61.08
2022-11-20T00:07:37.513Z,68.93
2022-11-20T00:12:42.481Z,87.30
2022-11-20T00:17:45.871Z,92.95
2022-11-20T00:22:49.365Z,73.60
2022-11-20T00:27:54.250Z,59.85
2022-11-20T00:32:59.240Z,75.57
2022-11-20T00:38:02.612Z,66.60
2022-11-20T00:43:07.331Z,64.75
2022-11-20T00:48:10.974Z,60.42
2022-11-20T00:53:14.311Z,59.05
2022-11-20T00:58:19.359Z,55.83
2022-11-20T01:03:27.013Z,63.33
2022-11-20T01:08:32.971Z,74.60
2022-11-20T01:13:41.974Z,66.30
2022-11-20T01:18:47.427Z,63.05
2022-11-20T01:23:52.325Z,92.30
2022-11-20T01:28:58.051Z,148.70
2022-11-20T01:34:03.207Z,129.10
2022-11-20T01:39:08.526Z,94.05
2022-11-20T01:44:16.836Z,64.25
2022-11-20T01:49:24.536Z,71.53
2022-11-20T01:54:33.469Z,74.68
2022-11-20T01:59:42.915Z,70.38
2022-11-20T02:04:47.055Z,72.43
2022-11-20T02:09:53.768Z,68.82
2022-11-20T02:15:03.065Z,46.13
2022-11-20T02:20:08.051Z,45.92
2022-11-20T02:25:13.425Z,42.05
2022-11-20T02:30:16.962Z,37.22
2022-11-20T02:35:44.029Z,47.53
2022-11-20T02:40:54.092Z,39.88
2022-11-20T02:45:58.828Z,41.83
2022-11-20T02:51:02.741Z,43.95
2022-11-20T02:56:08.818Z,49.75
2022-11-20T03:01:12.607Z,39.92
2022-11-20T03:06:16.290Z,45.63
2022-11-20T03:11:21.354Z,47.72
2022-11-20T03:16:25.672Z,40.42
2022-11-20T03:21:29.501Z,39.58
2022-11-20T03:26:34.280Z,42.10
2022-11-20T03:31:41.257Z,39.83
2022-11-20T03:36:45.150Z,42.10
2022-11-20T03:41:49.928Z,48.92
2022-11-20T03:46:53.305Z,42.20
2022-11-20T03:51:56.925Z,38.88
2022-11-20T03:57:01.608Z,43.47
2022-11-20T04:02:05.011Z,40.92
2022-11-20T04:07:08.626Z,37.80
2022-11-20T04:12:13.325Z,49.78
2022-11-20T04:17:16.755Z,50.67
2022-11-20T04:22:20.146Z,51.78
2022-11-20T04:27:25.116Z,51.17
2022-11-20T04:32:28.505Z,55.72
2022-11-20T04:37:31.885Z,52.65
2022-11-20T04:42:36.543Z,50.28
2022-11-20T04:47:39.856Z,52.85
2022-11-20T04:52:43.272Z,54.42
2022-11-20T04:57:51.454Z,51.05
2022-11-20T05:02:54.856Z,49.47
2022-11-20T05:07:59.051Z,52.83
2022-11-20T05:13:04.183Z,53.00
2022-11-20T05:18:08.345Z,53.10
2022-11-20T05:23:11.767Z,52.40
2022-11-20T05:28:16.775Z,51.33
2022-11-20T05:33:20.427Z,58.25
2022-11-20T05:38:23.821Z,63.15
2022-11-20T05:43:28.573Z,58.65
2022-11-20T05:48:32.399Z,62.65
2022-11-20T05:53:36.598Z,62.65
2022-11-20T05:58:42.404Z,65.45
2022-11-20T06:03:48.741Z,60.20
2022-11-20T06:08:52.494Z,65.65
2022-11-20T06:13:57.590Z,61.67
2022-11-20T06:19:01.002Z,56.75
2022-11-20T06:24:04.627Z,65.43
2022-11-20T06:29:09.707Z,60.53
2022-11-20T06:34:13.425Z,52.72
2022-11-20T06:39:16.803Z,65.45
2022-11-20T06:44:21.505Z,59.67
2022-11-20T06:49:26.138Z,60.47
2022-11-20T06:54:29.545Z,62.30
2022-11-20T06:59:34.541Z,63.55
2022-11-20T07:04:38.175Z,65.13
2022-11-20T07:09:41.548Z,64.68
2022-11-20T07:14:46.257Z,72.07
2022-11-20T07:19:49.935Z,73.85
2022-11-20T07:24:53.248Z,63.90
2022-11-20T07:29:58.067Z,68.25
2022-11-20T07:35:01.654Z,66.30
2022-11-20T07:40:05.835Z,61.40
2022-11-20T07:45:11.606Z,66.80
2022-11-20T07:50:15.600Z,62.70
2022-11-20T07:55:19.412Z,57.55
2022-11-20T08:00:24.564Z,60.28
2022-11-20T08:05:27.932Z,58.17
2022-11-20T08:10:31.369Z,51.50
2022-11-20T08:15:37.382Z,49.35
2022-11-20T08:20:40.797Z,49.35
2022-11-20T08:25:44.162Z,51.70
2022-11-20T08:30:48.924Z,42.22
2022-11-20T08:35:52.261Z,45.78
2022-11-20T08:41:16.625Z,39.95
2022-11-20T08:46:21.646Z,42.65
2022-11-20T08:51:25.015Z,41.38
2022-11-20T08:56:28.759Z,35.20
2022-11-20T09:01:33.548Z,36.55
2022-11-20T09:06:36.976Z,36.33
2022-11-20T09:11:40.383Z,35.78
2022-11-20T09:16:47.153Z,35.85
2022-11-20T09:21:50.541Z,36.95
2022-11-20T09:26:53.998Z,42.15
2022-11-20T09:31:58.899Z,35.58
2022-11-20T09:37:06.160Z,34.80
2022-11-20T09:42:24.984Z,32.42
2022-11-20T09:47:44.590Z,36.00
2022-11-20T09:52:54.796Z,40.10
2022-11-20T09:57:59.942Z,38.85
2022-11-20T10:03:14.053Z,38.20
2022-11-20T10:08:23.632Z,33.83
2022-11-20T10:13:38.414Z,29.58
2022-11-20T10:18:58.303Z,31.80
2022-11-20T10:24:18.933Z,31.58
2022-11-20T10:29:31.505Z,29.83
2022-11-20T10:34:46.190Z,33.55
2022-11-20T10:39:53.613Z,29.13
2022-11-20T10:45:06.956Z,32.60
2022-11-20T10:50:22.152Z,36.13
2022-11-20T10:55:34.935Z,32.75
2022-11-20T11:00:38.397Z,28.08
2022-11-20T11:05:50.959Z,27.75
2022-11-20T11:10:58.242Z,33.85
2022-11-20T11:16:02.309Z,30.20
2022-11-20T11:21:08.023Z,27.05
2022-11-20T11:26:22.159Z,27.98
2022-11-20T11:31:27.079Z,25.52
2022-11-20T11:36:32.349Z,24.30
2022-11-20T11:41:36.943Z,28.40
2022-11-20T11:46:44.219Z,23.20
2022-11-20T11:52:07.399Z,31.02
2022-11-20T11:57:18.836Z,26.77
2022-11-20T12:02:33.386Z,28.70
2022-11-20T12:07:47.277Z,32.25
2022-11-20T12:12:57.202Z,50.95
2022-11-20T12:18:02.785Z,28.98
2022-11-20T12:23:17.214Z,25.83
2022-11-20T12:28:44.678Z,23.63
2022-11-20T12:33:57.916Z,23.55
2022-11-20T12:39:19.969Z,21.58
2022-11-20T12:45:03.989Z,21.95
2022-11-20T12:50:15.346Z,20.00
2022-11-20T12:55:27.610Z,22.50
2022-11-20T13:00:34.384Z,24.67
2022-11-20T13:05:52.677Z,18.98
2022-11-20T13:11:03.493Z,19.13
2022-11-20T13:16:13.412Z,17.08
2022-11-20T13:21:20.016Z,20.95
2022-11-20T13:26:26.222Z,18.08
2022-11-20T13:31:34.843Z,18.05
2022-11-20T13:36:38.223Z,19.58
2022-11-20T13:41:43.682Z,20.70
2022-11-20T13:46:48.748Z,21.40
2022-11-20T13:51:56.187Z,19.92
2022-11-20T13:57:14.809Z,17.67
2022-11-20T14:02:20.753Z,19.25
2022-11-20T14:07:29.352Z,19.77
2022-11-20T14:12:37.810Z,19.77
2022-11-20T14:17:41.213Z,20.20
2022-11-20T14:22:51.239Z,23.13
2022-11-20T14:27:57.996Z,19.92
2022-11-20T14:33:05.347Z,22.17
2022-11-20T14:38:14.029Z,21.15
2022-11-20T14:43:25.352Z,23.52
2022-11-20T14:48:33.873Z,28.95
2022-11-20T14:53:37.323Z,40.38
2022-11-20T14:58:42.075Z,33.65
2022-11-20T15:03:45.573Z,30.27
2022-11-20T15:08:53.345Z,31.63
2022-11-20T15:13:58.963Z,22.45
2022-11-20T15:19:18.865Z,28.42
2022-11-20T15:24:22.552Z,28.25
2022-11-20T15:29:28.236Z,31.40
2022-11-20T15:34:31.589Z,33.13
2022-11-20T15:39:35.249Z,29.88
2022-11-20T15:44:39.987Z,33.08
2022-11-20T15:49:43.434Z,40.42
2022-11-20T15:54:46.853Z,45.05
2022-11-20T15:59:51.624Z,47.05
2022-11-20T16:04:55.003Z,44.22
2022-11-20T16:09:58.470Z,43.75
2022-11-20T16:15:29.056Z,44.28
2022-11-20T16:20:32.441Z,39.10
2022-11-20T16:25:36.326Z,41.58
2022-11-20T16:30:41.752Z,47.22
2022-11-20T16:35:45.609Z,48.30
2022-11-20T16:40:49.026Z,59.08
2022-11-20T16:45:54.286Z,50.58
2022-11-20T16:50:57.689Z,51.00
2022-11-20T16:56:10.540Z,53.95
2022-11-20T17:01:17.802Z,52.47
2022-11-20T17:06:22.782Z,53.88
2022-11-20T17:11:30.093Z,51.30
2022-11-20T17:16:35.699Z,48.85
2022-11-20T17:21:39.760Z,54.53
2022-11-20T17:26:49.053Z,56.22
2022-11-20T17:31:55.642Z,54.42
2022-11-20T17:36:59.305Z,57.10
2022-11-20T17:42:20.461Z,56.45
2022-11-20T17:47:25.652Z,61.08
2022-11-20T17:52:29.040Z,55.58
2022-11-20T17:57:49.958Z,53.05
2022-11-20T18:02:55.309Z,46.50
2022-11-20T18:07:58.647Z,45.05
2022-11-20T18:13:02.477Z,43.03
2022-11-20T18:18:07.504Z,46.83
2022-11-20T18:23:10.868Z,51.50
2022-11-20T18:28:14.503Z,59.10
2022-11-20T18:33:23.037Z,64.95
2022-11-20T18:38:28.987Z,112.18
2022-11-20T18:43:50.003Z,94.15
2022-11-20T18:48:54.800Z,79.30
2022-11-20T18:53:59.427Z,63.78
2022-11-20T18:59:03.998Z,79.07
2022-11-20T19:04:10.734Z,62.95
2022-11-20T19:09:14.894Z,62.63
2022-11-20T19:14:18.365Z,57.85
2022-11-20T19:19:23.443Z,67.75
2022-11-20T19:24:30.003Z,66.90
2022-11-20T19:29:33.450Z,66.05
2022-11-20T19:34:38.805Z,58.45
2022-11-20T19:39:42.664Z,63.60
2022-11-20T19:44:46.206Z,63.08
2022-11-20T19:49:51.301Z,64.40
2022-11-20T19:54:54.790Z,76.82
2022-11-20T19:59:58.422Z,67.00
2022-11-20T20:05:03.233Z,64.00
2022-11-20T20:10:08.029Z,58.83
2022-11-20T20:15:11.552Z,67.10
2022-11-20T20:20:17.276Z,64.63
2022-11-20T20:25:20.666Z,62.10
2022-11-20T20:30:24.086Z,59.35
2022-11-20T20:35:29.414Z,67.75
2022-11-20T20:40:32.886Z,65.47
2022-11-20T20:45:36.758Z,60.75
2022-11-20T20:50:41.742Z,65.05
2022-11-20T20:55:55.099Z,59.33
2022-11-20T21:06:08.062Z,58.78
2022-11-20T21:11:13.507Z,54.97
2022-11-20T21:16:19.089Z,63.40
2022-11-20T21:21:44.307Z,63.45
2022-11-20T21:26:49.557Z,74.20
2022-11-20T21:31:54.105Z,66.20
2022-11-20T21:36:59.067Z,72.63
2022-11-20T21:42:02.676Z,78.38
2022-11-20T21:47:06.422Z,68.85
2022-11-20T21:52:11.212Z,72.35
2022-11-20T21:57:14.629Z,70.70
2022-11-20T22:02:18.040Z,81.55
2022-11-20T22:07:23.958Z,89.82
2022-11-20T22:12:27.738Z,90.13
2022-11-20T22:17:48.753Z,89.65
2022-11-20T22:22:53.479Z,93.57
2022-11-20T22:27:56.948Z,86.50
2022-11-20T22:33:00.485Z,89.40
2022-11-20T22:38:05.650Z,83.60
2022-11-20T22:43:09.057Z,89.70
2022-11-20T22:48:12.535Z,79.85
2022-11-20T22:53:17.499Z,81.75
2022-11-20T22:58:20.979Z,90.53
2022-11-20T23:03:24.500Z,85.97
2022-11-20T23:08:29.773Z,87.18
2022-11-20T23:13:33.944Z,93.47
2022-11-20T23:18:38.194Z,82.72
2022-11-20T23:23:44.034Z,87.20
2022-11-20T23:28:47.689Z,87.93
2022-11-20T23:33:51.781Z,88.63
2022-11-20T23:38:56.849Z,96.63
2022-11-20T23:44:00.492Z,108.97
2022-11-20T23:49:03.886Z,113.38
2022-11-20T23:54:08.731Z,116.15
2022-11-20T23:59:12.196Z,121.15
